sensor_id;sensor_type;location;lat;lon;timestamp;pressure;altitude;pressure_sealevel;temperature;humidity
71638;BME280;59485;43.542;-5.676;2022-10-16T00:00:32;101101.28;;;18.57;93.20
71638;BME280;59485;43.542;-5.676;2022-10-16T00:02:58;101092.38;;;18.49;93.36
71638;BME280;59485;43.542;-5.676;2022-10-16T00:05:24;101100.72;;;18.49;93.16
71638;BME280;59485;43.542;-5.676;2022-10-16T00:07:49;101100.56;;;18.44;93.73
71638;BME280;59485;43.542;-5.676;2022-10-16T00:10:15;101094.88;;;18.38;93.91
71638;BME280;59485;43.542;-5.676;2022-10-16T00:12:40;101104.28;;;18.37;94.01
71638;BME280;59485;43.542;-5.676;2022-10-16T00:15:06;101099.19;;;18.34;93.76
71638;BME280;59485;43.542;-5.676;2022-10-16T00:17:32;101101.59;;;18.31;94.04
71638;BME280;59485;43.542;-5.676;2022-10-16T00:19:57;101084.94;;;18.31;94.12
71638;BME280;59485;43.542;-5.676;2022-10-16T00:22:23;101082.25;;;18.24;94.03
71638;BME280;59485;43.542;-5.676;2022-10-16T00:24:49;101086.78;;;18.19;94.58
71638;BME280;59485;43.542;-5.676;2022-10-16T00:27:14;101072.56;;;18.15;94.86
71638;BME280;59485;43.542;-5.676;2022-10-16T00:29:40;101075.47;;;18.20;94.42
71638;BME280;59485;43.542;-5.676;2022-10-16T00:32:05;101075.69;;;18.19;94.75
71638;BME280;59485;43.542;-5.676;2022-10-16T00:34:31;101064.69;;;18.12;94.88
71638;BME280;59485;43.542;-5.676;2022-10-16T00:36:56;101065.31;;;18.14;94.37
71638;BME280;59485;43.542;-5.676;2022-10-16T00:39:22;101056.22;;;18.07;94.58
71638;BME280;59485;43.542;-5.676;2022-10-16T00:41:48;101064.28;;;18.09;94.37
71638;BME280;59485;43.542;-5.676;2022-10-16T00:44:43;101061.53;;;18.09;94.94
71638;BME280;59485;43.542;-5.676;2022-10-16T00:47:34;101061.78;;;18.07;94.99
71638;BME280;59485;43.542;-5.676;2022-10-16T00:50:15;101062.00;;;18.06;94.42
71638;BME280;59485;43.542;-5.676;2022-10-16T00:52:45;101061.38;;;18.04;94.77
71638;BME280;59485;43.542;-5.676;2022-10-16T00:55:12;101051.47;;;17.96;94.73
71638;BME280;59485;43.542;-5.676;2022-10-16T00:57:38;101058.09;;;17.95;94.81
71638;BME280;59485;43.542;-5.676;2022-10-16T01:00:06;101063.41;;;17.96;95.03
71638;BME280;59485;43.542;-5.676;2022-10-16T01:02:33;101042.59;;;17.87;94.84
71638;BME280;59485;43.542;-5.676;2022-10-16T01:04:58;101048.16;;;17.87;94.76
71638;BME280;59485;43.542;-5.676;2022-10-16T01:15:30;101035.66;;;17.78;95.83
71638;BME280;59485;43.542;-5.676;2022-10-16T01:18:12;101031.81;;;17.79;96.12
71638;BME280;59485;43.542;-5.676;2022-10-16T01:20:59;101024.81;;;17.77;95.30
71638;BME280;59485;43.542;-5.676;2022-10-16T01:23:44;101038.03;;;17.75;95.42
71638;BME280;59485;43.542;-5.676;2022-10-16T01:26:30;101025.75;;;17.71;95.78
71638;BME280;59485;43.542;-5.676;2022-10-16T01:31:33;101025.75;;;17.71;95.88
71638;BME280;59485;43.542;-5.676;2022-10-16T01:34:05;101018.94;;;17.67;95.80
71638;BME280;59485;43.542;-5.676;2022-10-16T01:36:38;101014.31;;;17.60;95.64
71638;BME280;59485;43.542;-5.676;2022-10-16T01:39:06;101020.03;;;17.66;96.02
71638;BME280;59485;43.542;-5.676;2022-10-16T01:41:41;101021.09;;;17.65;96.05
71638;BME280;59485;43.542;-5.676;2022-10-16T01:44:16;101015.59;;;17.58;95.90
71638;BME280;59485;43.542;-5.676;2022-10-16T01:46:46;101029.25;;;17.59;95.42
71638;BME280;59485;43.542;-5.676;2022-10-16T01:49:13;101017.53;;;17.57;95.64
71638;BME280;59485;43.542;-5.676;2022-10-16T01:51:39;101017.75;;;17.56;95.37
71638;BME280;59485;43.542;-5.676;2022-10-16T01:54:08;101014.84;;;17.51;95.19
71638;BME280;59485;43.542;-5.676;2022-10-16T01:56:34;101017.22;;;17.47;94.87
71638;BME280;59485;43.542;-5.676;2022-10-16T01:59:06;101005.97;;;17.42;95.14
71638;BME280;59485;43.542;-5.676;2022-10-16T02:01:36;101005.50;;;17.45;95.53
71638;BME280;59485;43.542;-5.676;2022-10-16T02:04:17;100990.66;;;17.40;95.78
71638;BME280;59485;43.542;-5.676;2022-10-16T02:06:44;101001.97;;;17.38;95.30
71638;BME280;59485;43.542;-5.676;2022-10-16T02:09:09;101002.59;;;17.40;95.95
71638;BME280;59485;43.542;-5.676;2022-10-16T02:11:35;101007.28;;;17.40;95.64
71638;BME280;59485;43.542;-5.676;2022-10-16T02:14:05;101006.28;;;17.34;95.34
71638;BME280;59485;43.542;-5.676;2022-10-16T02:16:42;101001.19;;;17.31;95.38
71638;BME280;59485;43.542;-5.676;2022-10-16T02:19:08;100992.88;;;17.31;95.61
71638;BME280;59485;43.542;-5.676;2022-10-16T02:21:43;100986.09;;;17.27;95.43
71638;BME280;59485;43.542;-5.676;2022-10-16T02:24:27;100973.16;;;17.21;95.35
71638;BME280;59485;43.542;-5.676;2022-10-16T02:27:16;100977.19;;;17.25;95.53
71638;BME280;59485;43.542;-5.676;2022-10-16T02:29:48;100974.63;;;17.23;95.69
71638;BME280;59485;43.542;-5.676;2022-10-16T02:32:22;100966.41;;;17.17;95.46
71638;BME280;59485;43.542;-5.676;2022-10-16T02:34:50;100968.75;;;17.13;95.16
71638;BME280;59485;43.542;-5.676;2022-10-16T02:37:17;100965.59;;;17.10;95.44
71638;BME280;59485;43.542;-5.676;2022-10-16T02:39:43;100953.06;;;17.07;95.46
71638;BME280;59485;43.542;-5.676;2022-10-16T02:42:13;100959.91;;;17.05;94.84
71638;BME280;59485;43.542;-5.676;2022-10-16T02:44:39;100950.97;;;17.03;95.29
71638;BME280;59485;43.542;-5.676;2022-10-16T02:47:05;100957.34;;;17.03;95.41
71638;BME280;59485;43.542;-5.676;2022-10-16T02:49:30;100949.78;;;16.92;95.06
71638;BME280;59485;43.542;-5.676;2022-10-16T02:51:56;100942.19;;;16.87;95.41
71638;BME280;59485;43.542;-5.676;2022-10-16T02:54:21;100963.41;;;16.94;95.66
71638;BME280;59485;43.542;-5.676;2022-10-16T02:56:47;100943.69;;;16.83;95.10
71638;BME280;59485;43.542;-5.676;2022-10-16T02:59:12;100946.03;;;16.86;94.60
71638;BME280;59485;43.542;-5.676;2022-10-16T03:01:37;100950.09;;;16.84;94.89
71638;BME280;59485;43.542;-5.676;2022-10-16T03:04:03;100944.78;;;16.82;94.71
71638;BME280;59485;43.542;-5.676;2022-10-16T03:06:29;100940.78;;;16.78;94.74
71638;BME280;59485;43.542;-5.676;2022-10-16T03:08:54;100921.91;;;16.69;94.19
71638;BME280;59485;43.542;-5.676;2022-10-16T03:11:20;100923.16;;;16.73;94.12
71638;BME280;59485;43.542;-5.676;2022-10-16T03:13:45;100921.50;;;16.65;94.01
71638;BME280;59485;43.542;-5.676;2022-10-16T03:16:11;100932.13;;;16.68;94.10
71638;BME280;59485;43.542;-5.676;2022-10-16T03:18:36;100934.31;;;16.60;93.52
71638;BME280;59485;43.542;-5.676;2022-10-16T03:21:02;100923.94;;;16.55;93.65
71638;BME280;59485;43.542;-5.676;2022-10-16T03:23:28;100921.97;;;16.56;94.04
71638;BME280;59485;43.542;-5.676;2022-10-16T03:25:54;100924.38;;;16.52;93.36
71638;BME280;59485;43.542;-5.676;2022-10-16T03:28:19;100904.38;;;16.25;94.14
71638;BME280;59485;43.542;-5.676;2022-10-16T03:30:45;100911.13;;;16.29;94.86
71638;BME280;59485;43.542;-5.676;2022-10-16T03:33:10;100918.94;;;16.39;95.21
71638;BME280;59485;43.542;-5.676;2022-10-16T03:35:36;100918.34;;;16.37;95.03
71638;BME280;59485;43.542;-5.676;2022-10-16T03:38:01;100901.47;;;16.13;94.84
71638;BME280;59485;43.542;-5.676;2022-10-16T03:40:27;100911.81;;;16.25;95.86
71638;BME280;59485;43.542;-5.676;2022-10-16T03:42:52;100915.00;;;16.28;95.93
71638;BME280;59485;43.542;-5.676;2022-10-16T03:45:22;100887.84;;;16.12;95.87
71638;BME280;59485;43.542;-5.676;2022-10-16T03:47:48;100912.94;;;16.17;95.29
71638;BME280;59485;43.542;-5.676;2022-10-16T03:50:13;100899.75;;;16.19;95.55
71638;BME280;59485;43.542;-5.676;2022-10-16T03:52:39;100901.81;;;16.24;95.79
71638;BME280;59485;43.542;-5.676;2022-10-16T03:55:04;100886.13;;;16.18;95.60
71638;BME280;59485;43.542;-5.676;2022-10-16T03:57:31;100891.19;;;16.21;95.25
71638;BME280;59485;43.542;-5.676;2022-10-16T03:59:56;100888.59;;;16.01;94.85
71638;BME280;59485;43.542;-5.676;2022-10-16T04:02:22;100873.94;;;16.00;95.90
71638;BME280;59485;43.542;-5.676;2022-10-16T04:04:47;100885.31;;;16.10;95.58
71638;BME280;59485;43.542;-5.676;2022-10-16T04:07:13;100891.31;;;16.07;95.30
71638;BME280;59485;43.542;-5.676;2022-10-16T04:09:38;100895.41;;;15.98;94.44
71638;BME280;59485;43.542;-5.676;2022-10-16T04:12:04;100900.94;;;15.98;94.72
71638;BME280;59485;43.542;-5.676;2022-10-16T04:14:29;100891.59;;;15.99;94.97
71638;BME280;59485;43.542;-5.676;2022-10-16T04:16:55;100887.56;;;15.95;94.46
71638;BME280;59485;43.542;-5.676;2022-10-16T04:19:20;100883.94;;;15.95;94.64
71638;BME280;59485;43.542;-5.676;2022-10-16T04:21:46;100881.41;;;15.93;94.62
71638;BME280;59485;43.542;-5.676;2022-10-16T04:24:11;100884.41;;;15.92;94.28
71638;BME280;59485;43.542;-5.676;2022-10-16T04:26:37;100877.66;;;15.81;93.92
71638;BME280;59485;43.542;-5.676;2022-10-16T04:29:03;100890.59;;;15.87;93.88
71638;BME280;59485;43.542;-5.676;2022-10-16T04:31:29;100876.75;;;15.87;93.59
71638;BME280;59485;43.542;-5.676;2022-10-16T04:33:54;100878.91;;;15.85;94.01
71638;BME280;59485;43.542;-5.676;2022-10-16T04:36:20;100881.06;;;15.83;93.87
71638;BME280;59485;43.542;-5.676;2022-10-16T04:38:45;100874.06;;;15.81;93.54
71638;BME280;59485;43.542;-5.676;2022-10-16T04:41:11;100874.28;;;15.79;93.39
71638;BME280;59485;43.542;-5.676;2022-10-16T04:43:36;100870.88;;;15.77;93.67
71638;BME280;59485;43.542;-5.676;2022-10-16T04:46:02;100870.25;;;15.75;93.23
71638;BME280;59485;43.542;-5.676;2022-10-16T04:48:30;100868.38;;;15.69;93.49
71638;BME280;59485;43.542;-5.676;2022-10-16T04:50:58;100868.16;;;15.70;93.27
71638;BME280;59485;43.542;-5.676;2022-10-16T04:53:24;100875.19;;;15.66;92.91
71638;BME280;59485;43.542;-5.676;2022-10-16T04:55:50;100864.84;;;15.55;92.93
71638;BME280;59485;43.542;-5.676;2022-10-16T04:58:16;100860.19;;;15.43;93.21
71638;BME280;59485;43.542;-5.676;2022-10-16T05:00:41;100865.47;;;15.51;93.94
71638;BME280;59485;43.542;-5.676;2022-10-16T05:03:07;100859.94;;;15.51;93.87
71638;BME280;59485;43.542;-5.676;2022-10-16T05:05:34;100861.41;;;15.60;94.24
71638;BME280;59485;43.542;-5.676;2022-10-16T05:08:00;100859.72;;;15.59;94.07
71638;BME280;59485;43.542;-5.676;2022-10-16T05:10:25;100849.75;;;15.51;93.91
71638;BME280;59485;43.542;-5.676;2022-10-16T05:12:51;100859.72;;;15.59;93.92
71638;BME280;59485;43.542;-5.676;2022-10-16T05:15:17;100867.78;;;15.60;93.85
71638;BME280;59485;43.542;-5.676;2022-10-16T05:17:43;100862.69;;;15.57;93.63
71638;BME280;59485;43.542;-5.676;2022-10-16T05:20:09;100860.41;;;15.54;93.31
71638;BME280;59485;43.542;-5.676;2022-10-16T05:22:35;100850.16;;;15.48;93.46
71638;BME280;59485;43.542;-5.676;2022-10-16T05:25:00;100859.94;;;15.51;93.40
71638;BME280;59485;43.542;-5.676;2022-10-16T05:27:26;100858.72;;;15.47;93.11
71638;BME280;59485;43.542;-5.676;2022-10-16T05:29:51;100861.91;;;15.44;93.37
71638;BME280;59485;43.542;-5.676;2022-10-16T05:32:20;100858.91;;;15.45;93.57
71638;BME280;59485;43.542;-5.676;2022-10-16T05:34:46;100868.31;;;15.37;93.61
71638;BME280;59485;43.542;-5.676;2022-10-16T05:37:12;100867.47;;;15.30;93.66
71638;BME280;59485;43.542;-5.676;2022-10-16T05:39:40;100877.47;;;15.31;94.08
71638;BME280;59485;43.542;-5.676;2022-10-16T05:42:06;100877.25;;;15.33;94.50
71638;BME280;59485;43.542;-5.676;2022-10-16T05:44:31;100877.47;;;15.31;94.67
71638;BME280;59485;43.542;-5.676;2022-10-16T05:46:57;100881.91;;;15.32;94.67
71638;BME280;59485;43.542;-5.676;2022-10-16T05:49:23;100882.13;;;15.31;94.99
71638;BME280;59485;43.542;-5.676;2022-10-16T05:51:48;100881.91;;;15.32;94.54
71638;BME280;59485;43.542;-5.676;2022-10-16T05:54:14;100874.50;;;15.26;95.00
71638;BME280;59485;43.542;-5.676;2022-10-16T05:56:39;100891.50;;;15.30;95.60
71638;BME280;59485;43.542;-5.676;2022-10-16T05:59:05;100890.44;;;15.24;95.80
71638;BME280;59485;43.542;-5.676;2022-10-16T06:01:31;100888.56;;;15.18;96.24
71638;BME280;59485;43.542;-5.676;2022-10-16T06:03:58;100893.47;;;15.16;96.22
71638;BME280;59485;43.542;-5.676;2022-10-16T06:06:25;100900.03;;;15.15;96.44
71638;BME280;59485;43.542;-5.676;2022-10-16T06:08:52;100897.28;;;15.15;96.93
71638;BME280;59485;43.542;-5.676;2022-10-16T06:11:20;100889.84;;;15.16;97.34
71638;BME280;59485;43.542;-5.676;2022-10-16T06:13:50;100888.34;;;15.13;97.31
71638;BME280;59485;43.542;-5.676;2022-10-16T06:16:16;100890.69;;;15.16;97.41
71638;BME280;59485;43.542;-5.676;2022-10-16T06:18:42;100873.94;;;15.05;97.21
71638;BME280;59485;43.542;-5.676;2022-10-16T06:21:22;100890.06;;;15.14;97.60
71638;BME280;59485;43.542;-5.676;2022-10-16T06:23:50;100887.28;;;15.14;97.61
71638;BME280;59485;43.542;-5.676;2022-10-16T06:26:17;100883.28;;;15.10;97.19
71638;BME280;59485;43.542;-5.676;2022-10-16T06:28:43;100878.63;;;15.04;97.50
71638;BME280;59485;43.542;-5.676;2022-10-16T06:31:11;100875.00;;;15.03;97.66
71638;BME280;59485;43.542;-5.676;2022-10-16T06:33:37;100889.22;;;15.07;97.51
71638;BME280;59485;43.542;-5.676;2022-10-16T06:36:14;100876.72;;;15.05;97.52
71638;BME280;59485;43.542;-5.676;2022-10-16T06:38:40;100875.47;;;15.00;96.94
71638;BME280;59485;43.542;-5.676;2022-10-16T06:41:07;100878.19;;;15.07;96.85
71638;BME280;59485;43.542;-5.676;2022-10-16T06:43:33;100870.56;;;15.02;96.31
71638;BME280;59485;43.542;-5.676;2022-10-16T06:46:03;100864.63;;;14.99;95.95
71638;BME280;59485;43.542;-5.676;2022-10-16T06:48:29;100868.25;;;14.99;95.44
71638;BME280;59485;43.542;-5.676;2022-10-16T06:51:17;100856.59;;;14.91;95.05
71638;BME280;59485;43.542;-5.676;2022-10-16T06:53:48;100870.78;;;14.94;95.11
71638;BME280;59485;43.542;-5.676;2022-10-16T06:56:25;100875.25;;;14.95;94.87
71638;BME280;59485;43.542;-5.676;2022-10-16T06:58:51;100862.50;;;14.94;95.44
71638;BME280;59485;43.542;-5.676;2022-10-16T07:01:19;100859.53;;;14.96;95.05
71638;BME280;59485;43.542;-5.676;2022-10-16T07:03:46;100872.06;;;14.98;94.82
71638;BME280;59485;43.542;-5.676;2022-10-16T07:06:14;100866.97;;;14.95;94.80
71638;BME280;59485;43.542;-5.676;2022-10-16T07:08:42;100864.41;;;15.00;94.94
71638;BME280;59485;43.542;-5.676;2022-10-16T07:11:11;100854.22;;;15.01;94.65
71638;BME280;59485;43.542;-5.676;2022-10-16T07:13:39;100854.63;;;15.05;94.83
71638;BME280;59485;43.542;-5.676;2022-10-16T07:16:09;100848.50;;;15.02;94.87
71638;BME280;59485;43.542;-5.676;2022-10-16T07:18:35;100854.41;;;15.06;94.62
71638;BME280;59485;43.542;-5.676;2022-10-16T07:21:08;100854.41;;;15.06;94.47
71638;BME280;59485;43.542;-5.676;2022-10-16T07:23:34;100858.44;;;15.10;94.27
71638;BME280;59485;43.542;-5.676;2022-10-16T07:26:00;100859.03;;;15.12;94.35
71638;BME280;59485;43.542;-5.676;2022-10-16T07:28:26;100856.91;;;15.14;94.25
71638;BME280;59485;43.542;-5.676;2022-10-16T07:30:52;100859.91;;;15.19;94.35
71638;BME280;59485;43.542;-5.676;2022-10-16T07:33:17;100864.97;;;15.22;94.24
71638;BME280;59485;43.542;-5.676;2022-10-16T07:35:50;100850.13;;;15.17;94.20
71638;BME280;59485;43.542;-5.676;2022-10-16T07:38:17;100869.00;;;15.26;94.29
71638;BME280;59485;43.542;-5.676;2022-10-16T07:40:42;100865.34;;;15.32;94.44
71638;BME280;59485;43.542;-5.676;2022-10-16T07:43:08;100874.25;;;15.34;94.46
71638;BME280;59485;43.542;-5.676;2022-10-16T07:45:33;100867.47;;;15.37;94.75
71638;BME280;59485;43.542;-5.676;2022-10-16T07:47:59;100879.53;;;15.43;94.84
71638;BME280;59485;43.542;-5.676;2022-10-16T07:50:24;100869.75;;;15.47;95.34
71638;BME280;59485;43.542;-5.676;2022-10-16T07:52:50;100875.47;;;15.52;95.06
71638;BME280;59485;43.542;-5.676;2022-10-16T07:55:15;100868.47;;;15.56;95.41
71638;BME280;59485;43.542;-5.676;2022-10-16T07:57:41;100878.63;;;15.62;95.51
71638;BME280;59485;43.542;-5.676;2022-10-16T08:00:07;100860.97;;;15.63;95.41
71638;BME280;59485;43.542;-5.676;2022-10-16T08:02:38;100878.53;;;15.75;95.23
71638;BME280;59485;43.542;-5.676;2022-10-16T08:05:05;100880.22;;;15.76;95.04
71638;BME280;59485;43.542;-5.676;2022-10-16T08:07:31;100877.03;;;15.79;94.68
71638;BME280;59485;43.542;-5.676;2022-10-16T08:09:56;100894.19;;;15.88;94.23
71638;BME280;59485;43.542;-5.676;2022-10-16T08:12:23;100895.47;;;15.92;93.74
71638;BME280;59485;43.542;-5.676;2022-10-16T08:14:50;100883.72;;;15.96;93.38
71638;BME280;59485;43.542;-5.676;2022-10-16T08:17:15;100881.38;;;16.00;92.87
71638;BME280;59485;43.542;-5.676;2022-10-16T08:19:46;100878.56;;;16.06;92.61
71638;BME280;59485;43.542;-5.676;2022-10-16T08:22:13;100886.16;;;16.11;93.01
71638;BME280;59485;43.542;-5.676;2022-10-16T08:24:39;100894.44;;;16.18;92.49
71638;BME280;59485;43.542;-5.676;2022-10-16T08:27:04;100874.88;;;16.12;92.20
71638;BME280;59485;43.542;-5.676;2022-10-16T08:29:30;100879.25;;;16.27;92.10
71638;BME280;59485;43.542;-5.676;2022-10-16T08:31:55;100864.94;;;16.30;92.35
71638;BME280;59485;43.542;-5.676;2022-10-16T08:34:21;100868.91;;;16.40;92.26
71638;BME280;59485;43.542;-5.676;2022-10-16T08:36:46;100858.69;;;16.41;91.57
71638;BME280;59485;43.542;-5.676;2022-10-16T08:39:12;100874.56;;;16.52;91.39
71638;BME280;59485;43.542;-5.676;2022-10-16T08:45:13;100878.06;;;16.66;90.90
71638;BME280;59485;43.542;-5.676;2022-10-16T08:50:25;100879.47;;;16.75;91.11
71638;BME280;59485;43.542;-5.676;2022-10-16T08:52:53;100883.25;;;16.80;90.78
71638;BME280;59485;43.542;-5.676;2022-10-16T08:57:52;100867.66;;;16.86;90.50
71638;BME280;59485;43.542;-5.676;2022-10-16T09:00:18;100872.03;;;16.94;90.36
71638;BME280;59485;43.542;-5.676;2022-10-16T09:02:56;100879.44;;;17.00;90.04
71638;BME280;59485;43.542;-5.676;2022-10-16T09:05:31;100864.66;;;17.06;89.80
71638;BME280;59485;43.542;-5.676;2022-10-16T09:10:56;100870.97;;;17.13;89.50
71638;BME280;59485;43.542;-5.676;2022-10-16T09:16:40;100873.41;;;17.21;88.06
71638;BME280;59485;43.542;-5.676;2022-10-16T09:21:41;100876.94;;;17.28;86.31
71638;BME280;59485;43.542;-5.676;2022-10-16T09:24:15;100871.09;;;17.36;86.77
71638;BME280;59485;43.542;-5.676;2022-10-16T09:26:41;100875.19;;;17.34;85.23
71638;BME280;59485;43.542;-5.676;2022-10-16T09:29:10;100872.31;;;17.40;85.60
71638;BME280;59485;43.542;-5.676;2022-10-16T09:31:37;100870.94;;;17.49;84.95
71638;BME280;59485;43.542;-5.676;2022-10-16T09:34:03;100867.22;;;17.55;85.15
71638;BME280;59485;43.542;-5.676;2022-10-16T09:36:44;100858.59;;;17.63;84.82
71638;BME280;59485;43.542;-5.676;2022-10-16T09:39:11;100849.22;;;17.65;84.66
71638;BME280;59485;43.542;-5.676;2022-10-16T09:41:39;100853.72;;;17.77;84.79
71638;BME280;59485;43.542;-5.676;2022-10-16T09:44:28;100852.66;;;17.90;84.25
71638;BME280;59485;43.542;-5.676;2022-10-16T09:47:16;100841.72;;;17.95;84.15
71638;BME280;59485;43.542;-5.676;2022-10-16T09:49:58;100859.59;;;18.11;83.93
71638;BME280;59485;43.542;-5.676;2022-10-16T09:52:26;100856.88;;;18.22;83.63
71638;BME280;59485;43.542;-5.676;2022-10-16T09:54:54;100855.19;;;18.33;82.74
71638;BME280;59485;43.542;-5.676;2022-10-16T09:57:21;100853.84;;;18.35;81.20
71638;BME280;59485;43.542;-5.676;2022-10-16T09:59:53;100848.94;;;18.49;80.96
71638;BME280;59485;43.542;-5.676;2022-10-16T10:02:28;100851.84;;;18.66;81.10
71638;BME280;59485;43.542;-5.676;2022-10-16T10:04:55;100858.97;;;18.73;79.70
71638;BME280;59485;43.542;-5.676;2022-10-16T10:07:42;100846.41;;;18.83;79.89
71638;BME280;59485;43.542;-5.676;2022-10-16T10:10:29;100842.91;;;18.87;79.75
71638;BME280;59485;43.542;-5.676;2022-10-16T10:12:56;100838.44;;;18.74;79.19
71638;BME280;59485;43.542;-5.676;2022-10-16T10:15:23;100852.31;;;18.98;79.66
71638;BME280;59485;43.542;-5.676;2022-10-16T10:17:51;100842.03;;;19.10;77.49
71638;BME280;59485;43.542;-5.676;2022-10-16T10:20:27;100838.00;;;19.18;77.55
71638;BME280;59485;43.542;-5.676;2022-10-16T10:22:53;100833.44;;;19.11;77.67
71638;BME280;59485;43.542;-5.676;2022-10-16T10:33:59;100838.53;;;19.15;78.90
71638;BME280;59485;43.542;-5.676;2022-10-16T10:39:16;100835.81;;;19.31;78.75
71638;BME280;59485;43.542;-5.676;2022-10-16T10:44:50;100833.97;;;19.37;77.66
71638;BME280;59485;43.542;-5.676;2022-10-16T10:47:35;100825.16;;;19.40;77.63
71638;BME280;59485;43.542;-5.676;2022-10-16T10:57:59;100835.25;;;19.46;76.12
71638;BME280;59485;43.542;-5.676;2022-10-16T11:06:29;100822.59;;;19.38;75.94
71638;BME280;59485;43.542;-5.676;2022-10-16T11:09:07;100823.44;;;19.39;74.94
71638;BME280;59485;43.542;-5.676;2022-10-16T11:11:56;100830.19;;;19.43;75.44
71638;BME280;59485;43.542;-5.676;2022-10-16T11:14:33;100818.84;;;19.33;75.48
71638;BME280;59485;43.542;-5.676;2022-10-16T11:19:39;100815.97;;;19.39;76.31
71638;BME280;59485;43.542;-5.676;2022-10-16T11:24:44;100817.13;;;19.43;76.52
71638;BME280;59485;43.542;-5.676;2022-10-16T11:27:15;100807.38;;;19.41;77.39
71638;BME280;59485;43.542;-5.676;2022-10-16T11:29:56;100805.09;;;19.38;77.79
71638;BME280;59485;43.542;-5.676;2022-10-16T11:32:28;100810.34;;;19.51;77.00
71638;BME280;59485;43.542;-5.676;2022-10-16T11:35:10;100806.38;;;19.47;76.83
71638;BME280;59485;43.542;-5.676;2022-10-16T11:37:41;100797.91;;;19.42;77.78
71638;BME280;59485;43.542;-5.676;2022-10-16T11:40:21;100805.16;;;19.43;78.76
71638;BME280;59485;43.542;-5.676;2022-10-16T11:42:55;100792.13;;;19.43;78.76
71638;BME280;59485;43.542;-5.676;2022-10-16T11:45:34;100787.28;;;19.51;79.29
71638;BME280;59485;43.542;-5.676;2022-10-16T11:50:57;100781.31;;;19.30;79.94
71638;BME280;59485;43.542;-5.676;2022-10-16T11:53:35;100790.69;;;19.41;79.92
71638;BME280;59485;43.542;-5.676;2022-10-16T11:56:04;100791.25;;;19.43;79.40
71638;BME280;59485;43.542;-5.676;2022-10-16T11:58:51;100786.47;;;19.50;79.81
71638;BME280;59485;43.542;-5.676;2022-10-16T12:06:39;100764.66;;;19.47;80.63
71638;BME280;59485;43.542;-5.676;2022-10-16T12:11:54;100779.19;;;19.49;80.57
71638;BME280;59485;43.542;-5.676;2022-10-16T12:17:02;100757.22;;;19.36;79.57
71638;BME280;59485;43.542;-5.676;2022-10-16T12:19:31;100763.75;;;19.41;80.98
71638;BME280;59485;43.542;-5.676;2022-10-16T12:22:01;100769.44;;;19.35;81.17
71638;BME280;59485;43.542;-5.676;2022-10-16T12:24:36;100765.47;;;19.31;81.86
71638;BME280;59485;43.542;-5.676;2022-10-16T12:27:04;100776.97;;;19.23;83.17
71638;BME280;59485;43.542;-5.676;2022-10-16T12:29:37;100762.72;;;19.19;83.37
71638;BME280;59485;43.542;-5.676;2022-10-16T12:32:05;100756.13;;;19.08;83.75
71638;BME280;59485;43.542;-5.676;2022-10-16T12:34:47;100757.31;;;19.13;84.70
71638;BME280;59485;43.542;-5.676;2022-10-16T12:39:44;100757.41;;;19.18;85.14
71638;BME280;59485;43.542;-5.676;2022-10-16T12:44:44;100773.81;;;19.31;85.28
71638;BME280;59485;43.542;-5.676;2022-10-16T12:47:22;100764.94;;;19.34;85.01
71638;BME280;59485;43.542;-5.676;2022-10-16T12:49:53;100777.97;;;19.45;85.53
71638;BME280;59485;43.542;-5.676;2022-10-16T12:52:36;100771.56;;;19.44;85.36
71638;BME280;59485;43.542;-5.676;2022-10-16T12:55:04;100766.25;;;19.43;85.93
71638;BME280;59485;43.542;-5.676;2022-10-16T12:58:09;100789.81;;;19.52;86.29
71638;BME280;59485;43.542;-5.676;2022-10-16T13:00:48;100794.03;;;19.55;86.02
71638;BME280;59485;43.542;-5.676;2022-10-16T13:03:49;100789.25;;;19.38;87.23
71638;BME280;59485;43.542;-5.676;2022-10-16T13:06:33;100804.31;;;19.54;87.05
71638;BME280;59485;43.542;-5.676;2022-10-16T13:09:27;100798.66;;;19.49;87.01
71638;BME280;59485;43.542;-5.676;2022-10-16T13:17:48;100803.84;;;19.74;87.01
71638;BME280;59485;43.542;-5.676;2022-10-16T13:20:23;100817.34;;;19.82;86.98
71638;BME280;59485;43.542;-5.676;2022-10-16T13:28:09;100785.91;;;19.81;86.04
71638;BME280;59485;43.542;-5.676;2022-10-16T13:30:41;100794.34;;;19.86;86.13
71638;BME280;59485;43.542;-5.676;2022-10-16T13:35:54;100807.09;;;20.16;85.79
71638;BME280;59485;43.542;-5.676;2022-10-16T13:38:28;100830.31;;;20.21;85.19
71638;BME280;59485;43.542;-5.676;2022-10-16T13:40:58;100825.56;;;20.05;85.58
71638;BME280;59485;43.542;-5.676;2022-10-16T13:43:29;100815.19;;;20.01;85.79
71638;BME280;59485;43.542;-5.676;2022-10-16T13:46:16;100819.91;;;20.17;86.15
71638;BME280;59485;43.542;-5.676;2022-10-16T13:48:42;100807.69;;;20.18;85.90
71638;BME280;59485;43.542;-5.676;2022-10-16T13:53:36;100799.00;;;20.14;86.07
71638;BME280;59485;43.542;-5.676;2022-10-16T13:56:07;100795.78;;;20.06;86.38
71638;BME280;59485;43.542;-5.676;2022-10-16T13:58:33;100791.91;;;20.07;87.10
71638;BME280;59485;43.542;-5.676;2022-10-16T14:01:02;100804.00;;;20.12;86.78
71638;BME280;59485;43.542;-5.676;2022-10-16T14:03:29;100799.00;;;20.14;86.43
71638;BME280;59485;43.542;-5.676;2022-10-16T14:05:59;100809.97;;;20.21;86.63
71638;BME280;59485;43.542;-5.676;2022-10-16T14:08:27;100790.63;;;20.14;86.42
71638;BME280;59485;43.542;-5.676;2022-10-16T14:10:56;100807.69;;;20.18;86.60
71638;BME280;59485;43.542;-5.676;2022-10-16T14:13:51;100801.28;;;20.17;86.93
71638;BME280;59485;43.542;-5.676;2022-10-16T14:16:22;100801.03;;;20.19;86.46
71638;BME280;59485;43.542;-5.676;2022-10-16T14:21:22;100787.84;;;19.98;87.58
71638;BME280;59485;43.542;-5.676;2022-10-16T14:23:48;100782.88;;;20.00;88.44
71638;BME280;59485;43.542;-5.676;2022-10-16T14:26:16;100775.81;;;20.09;88.42
71638;BME280;59485;43.542;-5.676;2022-10-16T14:28:43;100774.38;;;20.06;87.19
71638;BME280;59485;43.542;-5.676;2022-10-16T14:31:35;100775.63;;;20.15;87.58